Newton Grove, North Carolina
Current Conditions -  °F | °C
As of 11:35 AM on Tuesday 27 Jan 2015 (Local Time) from KCTZ Reporting Station
Overcast Overcast  
Wind Chill: 32°   Ceiling: 5500
Heat Index: 38°   Visibility: 10mi
Dew Point: 29°   Wind: 7mph
Humidity: 70%   Direction: 330°NNW
Pressure: 29.83"   Gusts: NA
Location:  35.25°N, 78.35°W
Report Text: KCTZ 271635Z AUTO 33006KT 10SM SCT024 OVC055 03/M02 A2983 RMK AO2 T00311018
Loading
Personal Weather Stations






























Interactive Weather Map New forecast layout! Learn more

10-Day Weather Forecast

Advertisements
Track Severe Weather on mobile